Time;durP1;ratioP1;P1;durP2;ratioP2;P2;SDS_P1;SDS_P2;PMS_P1;PMS_P2;Temp;Humidity;BMP_temperature;BMP_pressure;BME280_temperature;BME280_humidity;BME280_pressure;Samples;Min_cycle;Max_cycle;Signal;HPM_P1;HPM_P2
2023/05/07 00:01:50;;;;;;;26.85;18.17;;;12.90;99.90;;;;;;5010794;28;20057;-81
2023/05/07 00:04:16;;;;;;;25.38;18.35;;;13.00;99.90;;;;;;5028710;28;20468;-81
2023/05/07 00:06:41;;;;;;;27.05;19.08;;;12.90;99.90;;;;;;5008436;28;20436;-81
2023/05/07 00:09:07;;;;;;;31.40;20.02;;;13.00;99.90;;;;;;5018633;28;20044;-81
2023/05/07 00:11:33;;;;;;;25.45;19.13;;;12.90;99.90;;;;;;5006720;28;20040;-81
2023/05/07 00:13:59;;;;;;;27.98;19.70;;;12.90;99.90;;;;;;5017844;28;20527;-81
2023/05/07 00:16:25;;;;;;;28.77;19.42;;;12.90;99.90;;;;;;5041064;28;20061;-81
2023/05/07 00:18:51;;;;;;;24.25;18.40;;;12.90;99.90;;;;;;5041638;28;20480;-81
2023/05/07 00:21:17;;;;;;;28.17;19.80;;;12.90;99.90;;;;;;5016468;28;20038;-81
2023/05/07 00:23:43;;;;;;;27.35;20.23;;;12.80;99.90;;;;;;5046317;28;20033;-81
2023/05/07 00:26:09;;;;;;;25.58;20.13;;;12.80;99.90;;;;;;5005289;28;20494;-81
2023/05/07 00:28:34;;;;;;;25.98;19.45;;;12.80;99.90;;;;;;5014008;28;20420;-81
2023/05/07 00:31:00;;;;;;;26.63;19.35;;;12.80;99.90;;;;;;5040293;28;20033;-81
2023/05/07 00:33:26;;;;;;;29.85;19.42;;;12.80;99.90;;;;;;5042777;28;20029;-81
2023/05/07 00:35:53;;;;;;;32.45;20.65;;;12.70;99.90;;;;;;5011092;28;20072;-81
2023/05/07 00:38:19;;;;;;;28.42;19.52;;;12.70;99.90;;;;;;5048672;28;20045;-81
2023/05/07 00:40:45;;;;;;;30.50;21.50;;;12.70;99.90;;;;;;5035540;28;20037;-81
2023/05/07 00:43:12;;;;;;;30.40;20.90;;;12.70;99.90;;;;;;5020623;28;20431;-81
2023/05/07 00:45:38;;;;;;;34.05;21.33;;;12.70;99.90;;;;;;5003763;28;20037;-81
2023/05/07 00:48:04;;;;;;;31.10;21.48;;;12.60;99.90;;;;;;5003893;28;20061;-81
2023/05/07 00:50:32;;;;;;;29.77;20.80;;;12.60;99.90;;;;;;5011061;28;20128;-81
2023/05/07 00:52:59;;;;;;;31.13;21.13;;;12.60;99.90;;;;;;5038595;28;20060;-81
2023/05/07 00:55:25;;;;;;;32.03;21.02;;;12.60;99.90;;;;;;5020504;28;20061;-81
2023/05/07 00:57:52;;;;;;;29.92;20.73;;;12.60;99.90;;;;;;5026805;28;20044;-82
2023/05/07 01:00:18;;;;;;;31.55;21.35;;;12.60;99.90;;;;;;5013800;28;20071;-81
2023/05/07 01:02:44;;;;;;;31.70;21.05;;;12.60;99.90;;;;;;5037707;28;20395;-81
2023/05/07 01:05:12;;;;;;;33.17;21.27;;;12.60;99.90;;;;;;5008393;28;20068;-81
2023/05/07 01:07:40;;;;;;;28.52;21.02;;;12.50;99.90;;;;;;5024597;28;20488;-81
2023/05/07 01:10:07;;;;;;;27.98;21.67;;;12.50;99.90;;;;;;5020221;28;20067;-81
2023/05/07 01:12:34;;;;;;;27.17;21.25;;;12.50;99.90;;;;;;5037316;28;20040;-81
2023/05/07 01:15:00;;;;;;;28.58;20.70;;;12.50;99.90;;;;;;5028298;28;20652;-81
2023/05/07 01:17:26;;;;;;;34.00;21.13;;;12.50;99.90;;;;;;5044862;28;20492;-81
2023/05/07 01:19:53;;;;;;;29.05;20.50;;;12.50;99.90;;;;;;5036827;28;20045;-81
2023/05/07 01:22:38;;;;;;;30.98;22.33;;;12.40;99.90;;;;;;5044216;28;20042;-81
2023/05/07 01:25:08;;;;;;;30.55;22.30;;;12.40;99.90;;;;;;5020176;28;20041;-81
2023/05/07 01:27:35;;;;;;;29.75;21.58;;;12.40;99.90;;;;;;5037202;28;20045;-81
2023/05/07 01:30:01;;;;;;;32.08;22.73;;;12.40;99.90;;;;;;5037963;28;20041;-81
2023/05/07 01:32:37;;;;;;;31.85;22.17;;;12.40;99.90;;;;;;5048560;28;20041;-81
2023/05/07 01:35:05;;;;;;;32.22;22.00;;;12.40;99.90;;;;;;5024733;28;20377;-81
2023/05/07 01:37:31;;;;;;;35.05;22.25;;;12.40;99.90;;;;;;5037540;28;20033;-81
2023/05/07 01:39:57;;;;;;;30.10;21.98;;;12.30;99.90;;;;;;5021812;28;20116;-81
2023/05/07 01:42:23;;;;;;;34.70;22.63;;;12.30;99.90;;;;;;5032534;28;20033;-81
2023/05/07 01:44:49;;;;;;;34.65;23.98;;;12.30;99.90;;;;;;5016094;28;20037;-81
2023/05/07 01:47:15;;;;;;;31.27;23.27;;;12.30;99.90;;;;;;5044914;28;20069;-81
2023/05/07 01:49:44;;;;;;;32.60;23.40;;;12.20;99.90;;;;;;5014239;28;20083;-81
2023/05/07 01:52:11;;;;;;;34.17;23.80;;;12.30;99.90;;;;;;5045468;28;20069;-81
2023/05/07 01:54:37;;;;;;;34.58;23.52;;;12.20;99.90;;;;;;5023244;28;20040;-81
2023/05/07 01:57:03;;;;;;;34.40;23.60;;;12.20;99.90;;;;;;5019194;28;20083;-81
2023/05/07 01:59:28;;;;;;;34.08;24.08;;;12.20;99.90;;;;;;5036053;28;20083;-82
2023/05/07 02:01:54;;;;;;;36.38;24.15;;;12.20;99.90;;;;;;5026884;28;20137;-81
2023/05/07 02:04:20;;;;;;;35.03;25.23;;;12.20;99.90;;;;;;5018592;28;20065;-81
2023/05/07 02:06:46;;;;;;;34.42;25.20;;;12.10;99.90;;;;;;5015392;28;20107;-81
2023/05/07 02:09:12;;;;;;;35.50;25.00;;;12.10;99.90;;;;;;5010564;28;20132;-81
2023/05/07 02:11:37;;;;;;;32.60;23.40;;;12.10;99.90;;;;;;5004815;28;20042;-82
2023/05/07 02:14:05;;;;;;;33.97;24.55;;;12.10;99.90;;;;;;5029784;28;20041;-81
2023/05/07 02:16:31;;;;;;;33.85;24.65;;;12.10;99.90;;;;;;5020368;28;20109;-81
2023/05/07 02:18:58;;;;;;;36.47;24.95;;;12.10;99.90;;;;;;5028756;28;20049;-81
2023/05/07 02:21:24;;;;;;;33.65;23.85;;;12.10;99.90;;;;;;5024945;28;20033;-81
2023/05/07 02:23:50;;;;;;;34.65;25.27;;;12.00;99.90;;;;;;5024959;28;20037;-81
2023/05/07 02:26:16;;;;;;;39.03;26.33;;;12.00;99.90;;;;;;5021878;28;20103;-81
2023/05/07 02:28:42;;;;;;;37.47;25.10;;;12.10;99.90;;;;;;5011850;28;20049;-81
2023/05/07 02:31:07;;;;;;;37.53;26.15;;;12.00;99.90;;;;;;5032119;28;20119;-81
2023/05/07 02:33:35;;;;;;;35.85;25.90;;;12.00;99.90;;;;;;5027789;28;20037;-82
2023/05/07 02:36:11;;;;;;;34.80;24.50;;;12.00;99.90;;;;;;5031065;28;20037;-82
2023/05/07 02:38:37;;;;;;;36.35;24.70;;;12.00;99.90;;;;;;5027073;28;20048;-81
2023/05/07 02:41:02;;;;;;;36.25;26.02;;;12.00;99.90;;;;;;5029635;28;20033;-82
2023/05/07 02:43:28;;;;;;;36.85;25.40;;;12.00;99.90;;;;;;5020815;28;20391;-81
2023/05/07 02:46:05;;;;;;;40.10;25.88;;;12.00;99.90;;;;;;5023766;28;20041;-82
2023/05/07 02:48:31;;;;;;;43.35;27.10;;;12.00;99.90;;;;;;5027665;28;20045;-81
2023/05/07 02:50:57;;;;;;;37.65;26.02;;;12.00;99.90;;;;;;5026053;28;20442;-82
2023/05/07 02:53:25;;;;;;;37.08;25.83;;;12.00;99.90;;;;;;5032969;28;20046;-81
2023/05/07 02:55:52;;;;;;;41.58;26.50;;;12.00;99.90;;;;;;5028757;28;20049;-81
2023/05/07 02:58:18;;;;;;;40.85;26.73;;;12.00;99.90;;;;;;5010142;28;20046;-81
2023/05/07 03:00:44;;;;;;;40.33;26.60;;;12.00;99.90;;;;;;5026776;28;20552;-81
2023/05/07 03:03:10;;;;;;;41.55;26.42;;;12.00;99.90;;;;;;5023785;28;20057;-82
2023/05/07 03:05:36;;;;;;;38.38;26.63;;;12.00;99.90;;;;;;5034010;28;20458;-81
2023/05/07 03:08:03;;;;;;;41.65;27.75;;;12.10;99.90;;;;;;5014175;28;20037;-82
2023/05/07 03:10:29;;;;;;;37.65;25.95;;;11.90;99.90;;;;;;5022958;28;20056;-82
2023/05/07 03:12:55;;;;;;;39.85;26.08;;;12.00;99.90;;;;;;5029209;28;20041;-81
2023/05/07 03:15:21;;;;;;;40.22;26.85;;;11.90;99.90;;;;;;5022605;28;20049;-81
2023/05/07 03:17:47;;;;;;;43.40;28.38;;;12.00;99.90;;;;;;5008970;28;20049;-82
2023/05/07 03:20:13;;;;;;;40.58;25.77;;;11.90;99.90;;;;;;5031736;28;20037;-81
2023/05/07 03:22:39;;;;;;;45.58;29.08;;;11.90;99.90;;;;;;5021233;28;20364;-81
2023/05/07 03:25:06;;;;;;;44.25;28.35;;;11.90;99.90;;;;;;5024463;28;20451;-82
2023/05/07 03:27:31;;;;;;;42.03;28.52;;;11.90;99.90;;;;;;5026774;28;20041;-82
2023/05/07 03:29:57;;;;;;;43.28;28.98;;;11.90;99.90;;;;;;5020728;28;20401;-82
2023/05/07 03:32:23;;;;;;;46.88;29.67;;;11.80;99.90;;;;;;5023567;28;20109;-82
2023/05/07 03:34:48;;;;;;;39.75;27.85;;;11.80;99.90;;;;;;5027510;28;20037;-82
2023/05/07 03:37:16;;;;;;;38.10;26.48;;;11.80;99.90;;;;;;5029453;28;20029;-82
2023/05/07 03:39:42;;;;;;;41.40;28.17;;;11.80;99.90;;;;;;5017971;28;20046;-82
2023/05/07 03:42:08;;;;;;;41.92;26.92;;;11.80;99.90;;;;;;5024389;28;20400;-82
2023/05/07 03:44:35;;;;;;;40.97;28.58;;;12.10;99.90;;;;;;5024817;28;20077;-82
2023/05/07 03:47:02;;;;;;;41.80;26.83;;;11.90;99.90;;;;;;5021194;28;20136;-82
2023/05/07 03:49:28;;;;;;;38.08;26.88;;;11.90;99.90;;;;;;5025195;28;20488;-82
2023/05/07 03:51:53;;;;;;;38.15;26.92;;;11.80;99.90;;;;;;5024369;28;20030;-82
2023/05/07 03:54:19;;;;;;;41.28;26.67;;;11.80;99.90;;;;;;5028988;28;20033;-82
2023/05/07 03:56:45;;;;;;;41.35;27.17;;;11.80;99.90;;;;;;5018287;28;20145;-82
2023/05/07 03:59:11;;;;;;;41.58;27.27;;;11.80;99.90;;;;;;5019944;28;20040;-81
2023/05/07 04:01:37;;;;;;;40.67;28.52;;;11.80;99.90;;;;;;5028197;28;20542;-82
2023/05/07 04:04:04;;;;;;;42.47;29.27;;;11.70;99.90;;;;;;5029822;28;20069;-82
2023/05/07 04:06:30;;;;;;;41.10;27.15;;;11.70;99.90;;;;;;5031302;28;20185;-82
2023/05/07 04:08:55;;;;;;;46.53;29.75;;;11.70;99.90;;;;;;5037724;28;20043;-81
2023/05/07 04:11:21;;;;;;;41.00;26.98;;;11.80;99.90;;;;;;5031308;28;20123;-81
2023/05/07 04:13:47;;;;;;;39.85;27.13;;;11.90;99.90;;;;;;5029203;28;20076;-82
2023/05/07 04:16:13;;;;;;;42.75;26.85;;;11.90;99.90;;;;;;5026656;28;20072;-81
2023/05/07 04:18:38;;;;;;;43.45;27.77;;;11.70;99.90;;;;;;5017032;28;20082;-81
2023/05/07 04:21:05;;;;;;;39.00;27.38;;;11.70;99.90;;;;;;5031624;28;20483;-81
2023/05/07 04:23:30;;;;;;;42.22;27.88;;;11.70;99.90;;;;;;5019881;28;20060;-82
2023/05/07 04:25:57;;;;;;;40.60;28.45;;;11.70;99.90;;;;;;5051004;28;20029;-81
2023/05/07 04:28:23;;;;;;;37.08;26.73;;;11.70;99.90;;;;;;5046726;28;20052;-81
2023/05/07 04:30:49;;;;;;;44.05;25.40;;;11.70;99.90;;;;;;5048050;28;20393;-82
2023/05/07 04:33:18;;;;;;;40.70;26.88;;;11.70;99.90;;;;;;5051645;28;20047;-82
2023/05/07 04:35:43;;;;;;;34.60;24.98;;;11.70;99.90;;;;;;5024005;28;20498;-82
2023/05/07 04:38:09;;;;;;;36.40;25.05;;;11.70;99.90;;;;;;5027619;28;20029;-82
2023/05/07 04:40:38;;;;;;;38.92;25.80;;;11.70;99.90;;;;;;5028287;28;20084;-82
2023/05/07 04:43:04;;;;;;;33.88;24.73;;;11.70;99.90;;;;;;5029446;28;20041;-81
2023/05/07 04:45:30;;;;;;;36.58;25.00;;;11.90;99.90;;;;;;5055173;28;20457;-81
2023/05/07 04:47:56;;;;;;;40.63;26.00;;;11.70;99.90;;;;;;5039531;28;20036;-82
2023/05/07 04:50:24;;;;;;;36.78;24.30;;;11.70;99.90;;;;;;5048343;28;20041;-82
2023/05/07 04:52:49;;;;;;;37.33;25.75;;;11.70;99.90;;;;;;5025594;28;20033;-81
2023/05/07 04:55:15;;;;;;;32.35;23.48;;;11.70;99.90;;;;;;5031493;28;20048;-81
2023/05/07 04:57:41;;;;;;;39.83;25.38;;;11.70;99.90;;;;;;5012810;28;20045;-81
2023/05/07 05:00:13;;;;;;;34.20;24.15;;;11.60;99.90;;;;;;5014057;28;20110;-81
2023/05/07 05:02:40;;;;;;;32.90;23.67;;;11.70;99.90;;;;;;5027121;28;20056;-81
2023/05/07 05:05:06;;;;;;;34.17;24.58;;;11.70;99.90;;;;;;5023156;28;20060;-81
2023/05/07 05:07:32;;;;;;;37.13;24.85;;;11.60;99.90;;;;;;5050170;28;20049;-82
2023/05/07 05:09:58;;;;;;;32.47;23.75;;;11.70;99.90;;;;;;5029707;28;20041;-81
2023/05/07 05:12:24;;;;;;;32.40;23.77;;;11.60;99.90;;;;;;5026297;28;20044;-81
2023/05/07 05:14:50;;;;;;;32.67;24.05;;;11.60;99.90;;;;;;5048268;28;20095;-81
2023/05/07 05:17:15;;;;;;;33.38;22.60;;;11.60;99.90;;;;;;5027391;28;20041;-79
2023/05/07 05:19:41;;;;;;;30.55;22.70;;;11.60;99.90;;;;;;5046070;28;20470;-83
2023/05/07 05:22:07;;;;;;;36.20;23.40;;;11.60;99.90;;;;;;5049418;28;20068;-82
2023/05/07 05:24:32;;;;;;;33.17;24.00;;;11.60;99.90;;;;;;5040871;28;20040;-81
2023/05/07 05:27:01;;;;;;;32.78;24.45;;;11.70;99.90;;;;;;5038161;28;20086;-82
2023/05/07 05:29:26;;;;;;;31.58;22.90;;;11.70;99.90;;;;;;5031595;28;20112;-82
2023/05/07 05:31:52;;;;;;;31.77;22.35;;;11.70;99.90;;;;;;5040380;28;20106;-81
2023/05/07 05:34:19;;;;;;;31.80;22.88;;;11.70;99.90;;;;;;5043536;28;20046;-82
2023/05/07 05:36:45;;;;;;;31.50;21.80;;;11.70;99.90;;;;;;5028586;28;20080;-81
2023/05/07 05:39:11;;;;;;;31.73;22.75;;;11.80;99.90;;;;;;5030255;28;20055;-81
2023/05/07 05:41:37;;;;;;;32.05;21.50;;;11.70;99.90;;;;;;5026386;28;20049;-81
2023/05/07 05:44:02;;;;;;;31.77;22.10;;;11.70;99.90;;;;;;5034915;28;20136;-81
2023/05/07 05:46:28;;;;;;;30.48;22.15;;;11.70;99.90;;;;;;5030047;28;20033;-81
2023/05/07 05:48:56;;;;;;;32.97;23.02;;;11.80;99.90;;;;;;5044087;28;20037;-82
2023/05/07 05:51:23;;;;;;;30.13;22.70;;;11.80;99.90;;;;;;5047177;28;20602;-81
2023/05/07 05:53:48;;;;;;;31.65;23.48;;;11.80;99.90;;;;;;5030788;28;20041;-81
2023/05/07 05:56:16;;;;;;;31.65;22.02;;;11.80;99.90;;;;;;5047673;28;20087;-82
2023/05/07 05:58:42;;;;;;;30.98;22.60;;;11.80;99.90;;;;;;5023928;28;20099;-81
2023/05/07 06:01:07;;;;;;;28.92;21.52;;;11.80;99.90;;;;;;5048918;28;20033;-81
2023/05/07 06:03:33;;;;;;;29.95;21.67;;;11.80;99.90;;;;;;5021519;28;20102;-82
2023/05/07 06:05:59;;;;;;;32.70;22.38;;;11.80;99.90;;;;;;5018364;28;20052;-82
2023/05/07 06:08:26;;;;;;;29.17;21.70;;;11.80;99.90;;;;;;5042565;28;20113;-82
2023/05/07 06:10:51;;;;;;;29.17;21.70;;;11.90;99.90;;;;;;5029877;28;20140;-82
2023/05/07 06:13:17;;;;;;;30.60;22.33;;;11.90;99.90;;;;;;5025317;28;20116;-86
2023/05/07 06:15:43;;;;;;;28.80;20.67;;;11.90;99.90;;;;;;5031361;28;20037;-83
2023/05/07 06:18:08;;;;;;;29.17;20.98;;;11.90;99.90;;;;;;5024133;28;20064;-82
2023/05/07 06:20:34;;;;;;;30.30;20.95;;;11.90;99.90;;;;;;5044693;28;20055;-82
2023/05/07 06:22:59;;;;;;;30.75;22.25;;;11.80;99.90;;;;;;5023676;28;20045;-82
2023/05/07 06:25:25;;;;;;;30.63;21.55;;;11.90;99.90;;;;;;5013700;28;20041;-83
2023/05/07 06:27:51;;;;;;;28.63;21.05;;;11.90;99.90;;;;;;5029296;28;20407;-82
2023/05/07 06:30:16;;;;;;;26.65;21.05;;;11.90;99.90;;;;;;5030688;28;20465;-82
2023/05/07 06:32:42;;;;;;;28.35;20.13;;;11.80;99.90;;;;;;5044997;28;20044;-85
2023/05/07 06:35:08;;;;;;;28.77;20.38;;;11.90;99.90;;;;;;5027380;28;20060;-82
2023/05/07 06:37:33;;;;;;;30.63;21.65;;;11.90;99.90;;;;;;5025447;28;20132;-81
2023/05/07 06:39:59;;;;;;;29.60;22.02;;;11.90;99.90;;;;;;5029410;28;20131;-82
2023/05/07 06:42:25;;;;;;;30.60;21.48;;;11.90;99.90;;;;;;5051791;28;20048;-82
2023/05/07 06:44:50;;;;;;;26.58;20.42;;;12.00;99.90;;;;;;5038149;28;20396;-82
2023/05/07 06:47:16;;;;;;;29.55;21.00;;;12.00;99.90;;;;;;5041914;28;20452;-82
2023/05/07 06:49:42;;;;;;;29.38;20.60;;;12.00;99.90;;;;;;5031460;28;20376;-81
2023/05/07 06:52:07;;;;;;;30.23;22.40;;;12.00;99.90;;;;;;5037941;28;20042;-82
2023/05/07 06:54:33;;;;;;;29.13;21.45;;;12.00;99.90;;;;;;5024028;28;20848;-82
2023/05/07 06:56:58;;;;;;;30.90;21.83;;;12.00;99.90;;;;;;5026906;28;20037;-82
2023/05/07 06:59:24;;;;;;;30.88;21.13;;;12.00;99.90;;;;;;5045655;28;20178;-81
2023/05/07 07:01:50;;;;;;;35.25;22.73;;;12.10;99.90;;;;;;5050369;28;20053;-82
2023/05/07 07:04:15;;;;;;;28.90;20.65;;;12.00;99.90;;;;;;5021805;28;20511;-82
2023/05/07 07:06:41;;;;;;;32.55;22.92;;;12.00;99.90;;;;;;5025959;28;20614;-82
2023/05/07 07:09:07;;;;;;;27.90;20.35;;;12.00;99.90;;;;;;5027903;28;20045;-82
2023/05/07 07:11:32;;;;;;;30.38;21.27;;;12.20;99.90;;;;;;5029115;28;20042;-82
2023/05/07 07:13:58;;;;;;;31.52;20.95;;;12.10;99.90;;;;;;5042977;28;20093;-82
2023/05/07 07:16:24;;;;;;;32.15;23.20;;;12.20;99.90;;;;;;5042137;28;20084;-81
2023/05/07 07:18:50;;;;;;;30.90;21.52;;;12.20;99.90;;;;;;5046288;28;20036;-82
2023/05/07 07:21:16;;;;;;;31.73;23.42;;;12.20;99.90;;;;;;5046128;28;20056;-82
2023/05/07 07:23:42;;;;;;;31.92;22.98;;;12.20;99.90;;;;;;5032127;28;20048;-82
2023/05/07 07:26:07;;;;;;;31.45;21.20;;;12.20;99.90;;;;;;5023124;28;20063;-82
2023/05/07 07:28:33;;;;;;;29.63;20.23;;;12.30;99.90;;;;;;5027882;28;20125;-82
2023/05/07 07:30:58;;;;;;;36.13;23.20;;;12.30;99.90;;;;;;5039634;28;20053;-82
2023/05/07 07:33:24;;;;;;;31.77;22.88;;;12.30;99.90;;;;;;5026513;28;20129;-81
2023/05/07 07:35:49;;;;;;;30.67;21.85;;;12.30;99.90;;;;;;5027523;28;20045;-82
2023/05/07 07:38:15;;;;;;;33.38;22.42;;;12.40;99.90;;;;;;5043066;28;20099;-82
2023/05/07 07:40:41;;;;;;;36.20;24.23;;;12.40;99.90;;;;;;5047542;28;20407;-82
2023/05/07 07:43:06;;;;;;;33.92;22.27;;;12.50;99.90;;;;;;5027816;28;20450;-82
2023/05/07 07:45:32;;;;;;;30.13;22.50;;;12.50;99.90;;;;;;5020623;28;20041;-82
2023/05/07 07:47:57;;;;;;;32.47;21.35;;;12.50;99.90;;;;;;5032087;28;20072;-82
2023/05/07 07:50:23;;;;;;;30.50;21.50;;;12.60;99.90;;;;;;5046395;28;20476;-82
2023/05/07 07:52:49;;;;;;;32.20;21.38;;;12.50;99.90;;;;;;5036266;28;20048;-82
2023/05/07 07:55:17;;;;;;;32.78;23.13;;;12.60;99.90;;;;;;5023700;28;20436;-82
2023/05/07 07:57:43;;;;;;;32.67;22.60;;;12.60;99.90;;;;;;5026581;28;20102;-81
2023/05/07 08:00:09;;;;;;;31.73;22.55;;;12.60;99.90;;;;;;5045871;28;20243;-82
2023/05/07 08:02:35;;;;;;;32.95;21.88;;;12.60;99.90;;;;;;5040590;28;20052;-82
2023/05/07 08:05:01;;;;;;;31.33;23.15;;;12.70;99.90;;;;;;5040470;28;20040;-81
2023/05/07 08:07:26;;;;;;;32.17;23.35;;;12.80;99.90;;;;;;5041251;28;20476;-82
2023/05/07 08:09:52;;;;;;;34.35;21.80;;;12.80;99.90;;;;;;5025271;28;20048;-82
2023/05/07 08:12:18;;;;;;;32.97;23.30;;;12.90;99.90;;;;;;5045855;28;20037;-82
2023/05/07 08:14:43;;;;;;;35.22;22.95;;;12.90;99.90;;;;;;5043664;28;20029;-82
2023/05/07 08:17:10;;;;;;;30.52;21.50;;;13.00;99.90;;;;;;5028344;28;20102;-83
2023/05/07 08:19:35;;;;;;;33.13;22.63;;;13.00;99.90;;;;;;5044695;28;20096;-83
2023/05/07 08:22:02;;;;;;;33.13;24.25;;;13.10;99.90;;;;;;5028162;28;20049;-83
2023/05/07 08:24:28;;;;;;;32.90;23.58;;;13.10;99.90;;;;;;5042036;28;20087;-82
2023/05/07 08:26:53;;;;;;;28.48;20.30;;;13.20;99.90;;;;;;5044755;28;20068;-82
2023/05/07 08:29:19;;;;;;;31.67;21.63;;;13.20;99.90;;;;;;5040209;28;20042;-82
2023/05/07 08:31:45;;;;;;;32.53;22.50;;;13.30;99.90;;;;;;5027312;28;20037;-82
2023/05/07 08:34:11;;;;;;;29.42;21.42;;;13.40;99.90;;;;;;5033309;28;20044;-85
2023/05/07 08:36:36;;;;;;;29.85;21.63;;;13.50;99.90;;;;;;5031684;28;20045;-89
2023/05/07 08:39:02;;;;;;;27.92;21.15;;;13.60;99.90;;;;;;5025798;28;20049;-92
2023/05/07 08:41:28;;;;;;;27.73;20.23;;;13.70;99.90;;;;;;5049041;28;20120;-92
2023/05/07 08:43:57;;;;;;;30.38;21.77;;;13.70;99.90;;;;;;5031738;28;20037;-89
2023/05/07 08:46:25;;;;;;;30.67;21.10;;;13.80;99.90;;;;;;5050524;28;20041;-93
2023/05/07 08:48:51;;;;;;;30.80;21.52;;;13.90;99.90;;;;;;5046811;28;20072;-89
2023/05/07 08:51:19;;;;;;;29.80;21.17;;;14.00;99.90;;;;;;5049667;28;20095;-87
2023/05/07 08:53:46;;;;;;;27.25;21.08;;;14.10;99.90;;;;;;5043626;28;20037;-84
2023/05/07 08:56:13;;;;;;;28.80;20.23;;;14.10;99.90;;;;;;5030143;28;20121;-84
2023/05/07 08:58:45;;;;;;;25.15;19.90;;;14.20;99.90;;;;;;5045063;28;20041;-85
2023/05/07 09:01:14;;;;;;;25.75;19.60;;;14.30;99.90;;;;;;5049484;28;20033;-85
2023/05/07 09:03:43;;;;;;;28.30;20.10;;;14.30;99.90;;;;;;5027740;28;20519;-86
2023/05/07 09:06:09;;;;;;;28.00;21.40;;;14.40;99.90;;;;;;5026132;28;20396;-86
2023/05/07 09:08:35;;;;;;;28.05;21.10;;;14.40;99.90;;;;;;5031747;28;20037;-86
2023/05/07 09:11:02;;;;;;;26.83;19.95;;;14.50;99.90;;;;;;5026868;28;20055;-87
2023/05/07 09:13:28;;;;;;;26.40;20.13;;;14.60;99.90;;;;;;5027065;28;20038;-86
2023/05/07 09:15:55;;;;;;;26.38;19.05;;;14.60;99.90;;;;;;5026549;28;20046;-85
2023/05/07 09:18:20;;;;;;;28.02;20.45;;;14.80;99.90;;;;;;5022601;28;20046;-85
2023/05/07 09:20:46;;;;;;;26.25;20.95;;;14.90;99.90;;;;;;5026219;28;20044;-87
2023/05/07 09:23:12;;;;;;;26.02;20.00;;;15.00;99.90;;;;;;5025558;28;20038;-89
2023/05/07 09:25:38;;;;;;;25.40;19.98;;;15.00;99.90;;;;;;5023835;28;20052;-89
2023/05/07 09:28:07;;;;;;;26.30;20.15;;;15.00;99.90;;;;;;5025917;28;20480;-89
2023/05/07 09:30:33;;;;;;;26.90;21.33;;;15.00;99.90;;;;;;5021305;28;20034;-88
2023/05/07 09:33:00;;;;;;;25.73;19.83;;;15.10;99.90;;;;;;5027165;28;20045;-89
2023/05/07 09:35:29;;;;;;;26.10;19.23;;;15.10;99.90;;;;;;5028953;28;20044;-91
2023/05/07 09:37:57;;;;;;;28.23;20.02;;;15.20;99.90;;;;;;5024843;28;20046;-89
2023/05/07 09:40:28;;;;;;;24.10;19.60;;;15.20;99.90;;;;;;5023780;28;20042;-88
2023/05/07 09:42:54;;;;;;;27.92;20.52;;;15.30;99.90;;;;;;5032430;28;20053;-88
2023/05/07 09:45:25;;;;;;;25.88;19.48;;;15.40;99.90;;;;;;5027161;28;20566;-88
2023/05/07 09:47:56;;;;;;;27.05;19.15;;;15.50;99.90;;;;;;5023604;28;20045;-89
2023/05/07 09:50:27;;;;;;;24.52;19.63;;;15.50;99.90;;;;;;5023982;28;20048;-88
2023/05/07 09:52:55;;;;;;;24.20;18.10;;;15.60;99.90;;;;;;5028751;28;20072;-88
2023/05/07 09:55:21;;;;;;;24.08;18.88;;;15.60;99.90;;;;;;5028342;28;20046;-88
2023/05/07 09:57:52;;;;;;;25.83;18.02;;;15.70;99.90;;;;;;5019454;28;20038;-87
2023/05/07 10:00:21;;;;;;;25.05;18.80;;;15.70;99.90;;;;;;5031875;28;20046;-88
2023/05/07 10:02:51;;;;;;;29.02;19.35;;;15.80;99.90;;;;;;5026152;28;20598;-88
2023/05/07 10:05:18;;;;;;;26.90;20.08;;;15.80;99.90;;;;;;5025571;28;20509;-87
2023/05/07 10:07:44;;;;;;;25.50;19.23;;;15.90;99.90;;;;;;5019870;28;20042;-84
2023/05/07 10:10:10;;;;;;;24.67;18.63;;;16.00;99.90;;;;;;5017898;28;20049;-86
2023/05/07 10:12:38;;;;;;;24.85;19.13;;;16.00;99.90;;;;;;5028372;28;20053;-87
2023/05/07 10:15:11;;;;;;;26.88;18.77;;;16.10;99.90;;;;;;5020067;28;20049;-84
2023/05/07 10:17:40;;;;;;;26.35;18.77;;;16.20;99.90;;;;;;5011049;28;20185;-88
2023/05/07 10:20:08;;;;;;;26.38;18.20;;;16.20;99.90;;;;;;5026981;28;20037;-87
2023/05/07 10:22:40;;;;;;;22.15;17.42;;;16.20;99.90;;;;;;5025710;28;20103;-87
2023/05/07 10:25:17;;;;;;;22.05;17.55;;;16.30;99.90;;;;;;5026543;28;20044;-87
2023/05/07 10:27:44;;;;;;;23.55;18.20;;;16.30;99.90;;;;;;5027057;28;20096;-87
2023/05/07 10:30:25;;;;;;;22.52;16.52;;;16.30;99.90;;;;;;5023257;28;20068;-87
2023/05/07 10:32:55;;;;;;;22.00;16.67;;;16.30;99.90;;;;;;5027562;28;20041;-87
2023/05/07 10:35:25;;;;;;;21.95;16.98;;;16.30;99.90;;;;;;5024460;28;20053;-86
2023/05/07 10:37:51;;;;;;;24.13;18.23;;;16.40;99.90;;;;;;5029201;28;20041;-86
2023/05/07 10:40:19;;;;;;;22.48;17.58;;;16.40;99.90;;;;;;5030860;28;20091;-87
2023/05/07 10:43:14;;;;;;;22.88;17.83;;;16.40;99.90;;;;;;5028316;28;20081;-87
2023/05/07 10:45:40;;;;;;;23.17;17.40;;;16.40;99.90;;;;;;5000129;28;20089;-87
2023/05/07 10:48:08;;;;;;;21.58;17.00;;;16.50;99.90;;;;;;5019859;28;20096;-87
2023/05/07 10:50:35;;;;;;;20.02;16.15;;;16.60;99.90;;;;;;5026808;28;20573;-86
2023/05/07 10:53:19;;;;;;;19.77;16.45;;;16.70;99.90;;;;;;5025950;28;20121;-86
2023/05/07 10:55:50;;;;;;;25.85;18.90;;;16.80;99.90;;;;;;5040008;28;20400;-86
2023/05/07 10:58:21;;;;;;;27.15;16.77;;;17.00;99.90;;;;;;5029313;28;20037;-86
2023/05/07 11:00:48;;;;;;;21.83;16.50;;;17.10;99.90;;;;;;5022133;28;20084;-87
2023/05/07 11:03:14;;;;;;;23.20;17.15;;;17.20;99.90;;;;;;5018830;28;20049;-86
2023/05/07 11:05:41;;;;;;;21.55;15.75;;;17.30;99.90;;;;;;5020904;28;20118;-86
2023/05/07 11:08:08;;;;;;;21.00;17.20;;;17.40;99.90;;;;;;5020071;28;20045;-87
2023/05/07 11:10:49;;;;;;;22.52;17.30;;;17.50;99.90;;;;;;5019488;28;20125;-87
2023/05/07 11:13:16;;;;;;;21.33;16.73;;;17.50;99.90;;;;;;5012974;28;20077;-87
2023/05/07 11:15:44;;;;;;;19.60;16.85;;;17.50;99.90;;;;;;5023503;28;20041;-86
2023/05/07 11:18:11;;;;;;;24.33;17.95;;;17.70;99.90;;;;;;5018875;28;20123;-86
2023/05/07 11:20:55;;;;;;;17.45;15.52;;;17.80;99.90;;;;;;5014977;28;20479;-86
2023/05/07 11:23:33;;;;;;;21.55;16.58;;;17.80;99.90;;;;;;5019967;28;20081;-86
2023/05/07 11:26:09;;;;;;;21.40;16.08;;;17.80;99.90;;;;;;5018844;28;20119;-85
2023/05/07 11:28:41;;;;;;;20.60;17.42;;;17.80;99.90;;;;;;5012087;28;20045;-87
2023/05/07 11:31:07;;;;;;;21.15;16.63;;;17.80;99.90;;;;;;5020751;28;20056;-87
2023/05/07 11:33:34;;;;;;;19.38;16.92;;;17.80;99.90;;;;;;5015879;28;20046;-86
2023/05/07 11:36:02;;;;;;;18.70;16.50;;;17.80;99.90;;;;;;5022848;28;20496;-87
2023/05/07 11:38:38;;;;;;;21.75;16.80;;;17.90;99.90;;;;;;5021145;28;20419;-87
2023/05/07 11:41:05;;;;;;;19.25;16.75;;;17.90;99.90;;;;;;5010796;28;20033;-87
2023/05/07 11:43:32;;;;;;;17.10;15.23;;;18.10;99.90;;;;;;5018096;28;20568;-87
2023/05/07 11:46:10;;;;;;;20.45;16.50;;;18.30;99.90;;;;;;5027895;28;20080;-88
2023/05/07 11:48:36;;;;;;;18.15;15.93;;;18.50;99.90;;;;;;5008609;28;20046;-89
2023/05/07 11:51:04;;;;;;;19.58;17.17;;;18.60;99.90;;;;;;5023654;28;20048;-88
2023/05/07 11:53:38;;;;;;;19.65;16.55;;;18.60;99.90;;;;;;5027405;28;20099;-83
2023/05/07 11:56:12;;;;;;;19.90;16.73;;;18.50;99.90;;;;;;5022345;28;20037;-86
2023/05/07 11:58:38;;;;;;;18.17;15.65;;;18.50;99.90;;;;;;5027833;28;20037;-89
2023/05/07 12:01:04;;;;;;;19.80;17.05;;;18.50;99.90;;;;;;5026686;28;20041;-92
2023/05/07 12:03:30;;;;;;;18.15;16.17;;;18.40;99.90;;;;;;5027628;28;20562;-91
2023/05/07 12:05:55;;;;;;;20.35;17.25;;;18.40;99.90;;;;;;5028302;28;20040;-91
2023/05/07 12:08:22;;;;;;;21.17;17.02;;;18.30;99.90;;;;;;5023311;28;20045;-84
2023/05/07 12:10:50;;;;;;;21.15;17.85;;;18.30;99.90;;;;;;5015959;28;20253;-84
2023/05/07 12:13:15;;;;;;;19.70;16.67;;;18.30;99.90;;;;;;5018420;28;20574;-82
2023/05/07 12:15:42;;;;;;;20.38;17.42;;;18.30;99.90;;;;;;5019517;28;20315;-83
2023/05/07 12:18:08;;;;;;;21.10;16.65;;;18.20;99.90;;;;;;5009806;28;20226;-82
2023/05/07 12:20:36;;;;;;;17.38;15.55;;;18.30;99.90;;;;;;5014165;28;20045;-82
2023/05/07 12:23:02;;;;;;;21.35;17.08;;;18.30;99.90;;;;;;5016228;28;20120;-82
2023/05/07 12:25:35;;;;;;;18.63;16.52;;;18.30;99.90;;;;;;5016635;28;20054;-83
2023/05/07 12:28:04;;;;;;;17.67;15.52;;;18.30;99.90;;;;;;5020787;28;20050;-83